Time;durP1;ratioP1;P1;durP2;ratioP2;P2;SDS_P1;SDS_P2;PMS_P1;PMS_P2;Temp;Humidity;BMP_temperature;BMP_pressure;BME280_temperature;BME280_humidity;BME280_pressure;Samples;Min_cycle;Max_cycle;Signal;HPM_P1;HPM_P2
2022/05/02 00:00:24;;;;;;;1.50;0.65;;;26.30;94.70;;;;;;5077124;28;20062;-74
2022/05/02 00:02:52;;;;;;;3.55;1.30;;;26.60;95.20;;;;;;5076212;28;20026;-73
2022/05/02 00:05:19;;;;;;;2.13;0.68;;;26.80;93.90;;;;;;5075201;28;20031;-73
2022/05/02 00:07:47;;;;;;;1.98;0.95;;;26.50;94.40;;;;;;5076676;28;20398;-73
2022/05/02 00:10:15;;;;;;;3.65;1.10;;;26.80;94.40;;;;;;5075032;28;20551;-73
2022/05/02 00:12:42;;;;;;;2.38;0.98;;;27.10;93.90;;;;;;5080299;28;20028;-73
2022/05/02 00:15:10;;;;;;;6.78;1.08;;;27.30;94.60;;;;;;5078850;28;20028;-74
2022/05/02 00:20:35;;;;;;;4.10;0.90;;;27.90;93.50;;;;;;5089308;28;20043;-73
2022/05/02 00:23:08;;;;;;;4.35;1.48;;;27.70;93.30;;;;;;5087555;28;20024;-73
2022/05/02 00:25:36;;;;;;;5.70;1.17;;;27.90;93.00;;;;;;5084188;28;20047;-74
2022/05/02 00:28:04;;;;;;;5.22;2.28;;;28.00;93.70;;;;;;5088707;28;20027;-73
2022/05/02 00:30:32;;;;;;;3.00;1.17;;;28.30;92.50;;;;;;5091134;28;20678;-74
2022/05/02 00:33:00;;;;;;;4.55;1.05;;;28.20;92.40;;;;;;5084659;28;20461;-74
2022/05/02 00:35:28;;;;;;;3.20;1.17;;;27.50;92.40;;;;;;5073182;28;20028;-74
2022/05/02 00:37:55;;;;;;;5.40;1.60;;;27.60;92.90;;;;;;5093736;28;20024;-75
2022/05/02 00:40:23;;;;;;;6.35;1.70;;;28.20;92.40;;;;;;5084214;28;20024;-74
2022/05/02 00:42:51;;;;;;;2.35;1.02;;;28.30;91.80;;;;;;5087604;28;20059;-74
2022/05/02 00:45:20;;;;;;;3.97;0.82;;;28.60;91.80;;;;;;5083364;28;20024;-79
2022/05/02 00:47:57;;;;;;;3.42;0.88;;;28.70;91.30;;;;;;5088030;28;20065;-79
2022/05/02 00:50:47;;;;;;;7.25;1.30;;;28.60;91.40;;;;;;5092963;28;20024;-79
2022/05/02 00:53:22;;;;;;;4.63;1.23;;;28.90;91.20;;;;;;5086129;28;20048;-78
2022/05/02 00:55:50;;;;;;;3.55;0.82;;;29.00;91.60;;;;;;5080804;28;20020;-77
2022/05/02 00:58:18;;;;;;;1.80;0.80;;;29.10;90.90;;;;;;5112758;28;20030;-80
2022/05/02 01:00:45;;;;;;;4.32;0.82;;;29.10;91.70;;;;;;5102413;28;20051;-79
2022/05/02 01:03:14;;;;;;;5.85;0.80;;;29.10;90.50;;;;;;5087239;28;20028;-79
2022/05/02 01:08:33;;;;;;;3.78;0.63;;;29.40;91.30;;;;;;5074350;28;20119;-79
2022/05/02 01:11:01;;;;;;;3.47;1.05;;;30.00;90.70;;;;;;5073857;28;20486;-78
2022/05/02 01:13:33;;;;;;;4.75;1.50;;;29.60;90.50;;;;;;5094195;28;20027;-79
2022/05/02 01:16:06;;;;;;;3.83;1.00;;;29.60;90.50;;;;;;5074213;28;20433;-79
2022/05/02 01:18:33;;;;;;;4.32;1.08;;;29.40;90.80;;;;;;5100038;28;20094;-79
2022/05/02 01:21:01;;;;;;;3.60;0.88;;;29.50;91.60;;;;;;5076307;28;20089;-75
2022/05/02 01:23:28;;;;;;;3.55;0.75;;;29.80;90.60;;;;;;5077300;28;20028;-74
2022/05/02 01:25:55;;;;;;;2.50;0.90;;;29.80;90.60;;;;;;5087101;28;20374;-74
2022/05/02 01:28:23;;;;;;;3.92;1.33;;;29.40;90.40;;;;;;5081722;28;20028;-74
2022/05/02 01:30:50;;;;;;;3.65;0.88;;;28.60;91.60;;;;;;5090794;28;20056;-75
2022/05/02 01:33:17;;;;;;;1.45;0.93;;;29.00;91.20;;;;;;5073443;28;20078;-74
2022/05/02 01:35:45;;;;;;;3.88;0.95;;;29.20;91.60;;;;;;5089813;28;20082;-74
2022/05/02 01:38:13;;;;;;;4.35;0.90;;;29.40;91.10;;;;;;5098722;28;20031;-75
2022/05/02 01:40:40;;;;;;;4.63;1.00;;;29.50;90.90;;;;;;5092206;28;20046;-76
2022/05/02 01:43:10;;;;;;;4.57;1.17;;;29.70;90.00;;;;;;5089468;28;20673;-77
2022/05/02 01:45:37;;;;;;;3.97;0.60;;;29.50;90.90;;;;;;5072257;28;20070;-75
2022/05/02 01:48:05;;;;;;;2.90;0.65;;;29.70;90.50;;;;;;5072995;28;20083;-76
2022/05/02 01:50:32;;;;;;;1.65;0.43;;;29.50;90.80;;;;;;5072209;28;20020;-76
2022/05/02 01:53:00;;;;;;;5.38;0.80;;;29.70;91.10;;;;;;5100059;28;20078;-76
2022/05/02 01:55:27;;;;;;;3.55;1.10;;;30.10;90.60;;;;;;5069256;28;20364;-76
2022/05/02 01:57:54;;;;;;;2.58;1.00;;;29.70;90.30;;;;;;5091143;28;20024;-75
2022/05/02 02:00:22;;;;;;;3.75;1.13;;;29.40;90.60;;;;;;5093960;28;20474;-75
2022/05/02 02:02:49;;;;;;;2.75;0.93;;;29.30;90.80;;;;;;5085839;28;20064;-75
2022/05/02 02:08:02;;;;;;;1.40;0.60;;;29.10;90.60;;;;;;5086500;28;20094;-76
2022/05/02 02:10:29;;;;;;;4.03;0.80;;;29.10;90.80;;;;;;5077682;28;20024;-76
2022/05/02 02:12:56;;;;;;;3.05;0.57;;;29.00;90.90;;;;;;5086730;28;20028;-76
2022/05/02 02:15:24;;;;;;;3.53;0.90;;;29.10;90.80;;;;;;5090936;28;20048;-74
2022/05/02 02:17:51;;;;;;;4.07;0.57;;;28.60;90.50;;;;;;5092137;28;20111;-75
2022/05/02 02:20:18;;;;;;;6.35;0.63;;;27.90;90.70;;;;;;5084088;28;20032;-75
2022/05/02 02:22:46;;;;;;;4.72;1.02;;;27.80;91.30;;;;;;5087732;28;20032;-75
2022/05/02 02:25:14;;;;;;;4.68;0.57;;;27.80;91.70;;;;;;5089539;28;20487;-75
2022/05/02 02:27:41;;;;;;;5.35;1.10;;;27.70;91.60;;;;;;5109044;28;20070;-73
2022/05/02 02:30:09;;;;;;;1.38;0.55;;;27.70;91.00;;;;;;5086708;28;20029;-73
2022/05/02 02:32:36;;;;;;;3.50;0.45;;;27.80;91.80;;;;;;5083298;28;20394;-76
2022/05/02 02:35:04;;;;;;;3.47;0.68;;;28.10;91.80;;;;;;5089012;28;20406;-74
2022/05/02 02:37:31;;;;;;;3.17;0.65;;;27.60;90.80;;;;;;5073823;28;20029;-76
2022/05/02 02:39:59;;;;;;;4.25;0.95;;;27.40;91.90;;;;;;5080263;28;20040;-77
2022/05/02 02:42:26;;;;;;;3.38;0.50;;;27.40;91.40;;;;;;5100296;28;20043;-73
2022/05/02 02:44:53;;;;;;;4.80;0.93;;;27.30;91.50;;;;;;5090666;28;20028;-75
2022/05/02 02:47:21;;;;;;;3.72;0.57;;;26.70;92.80;;;;;;5086262;28;20071;-76
2022/05/02 02:49:49;;;;;;;2.15;0.40;;;26.80;92.30;;;;;;5087774;28;20036;-76
2022/05/02 02:52:16;;;;;;;1.55;0.73;;;26.80;91.80;;;;;;5096784;28;20072;-75
2022/05/02 02:54:43;;;;;;;1.55;0.32;;;27.10;92.40;;;;;;5096517;28;20433;-75
2022/05/02 02:57:11;;;;;;;1.88;0.95;;;27.30;92.10;;;;;;5098759;28;20023;-75
2022/05/02 02:59:38;;;;;;;2.75;0.60;;;27.40;91.60;;;;;;5106196;28;20035;-74
2022/05/02 03:02:07;;;;;;;2.30;0.45;;;27.40;92.20;;;;;;5084470;28;20489;-75
2022/05/02 03:07:23;;;;;;;3.97;0.20;;;27.50;91.30;;;;;;5082395;28;20043;-76
2022/05/02 03:09:50;;;;;;;1.90;0.50;;;27.70;90.90;;;;;;5086993;28;20780;-75
2022/05/02 03:12:19;;;;;;;3.90;0.47;;;27.70;90.90;;;;;;5101255;28;20114;-76
2022/05/02 03:14:49;;;;;;;5.30;0.30;;;27.20;91.10;;;;;;5111035;28;20530;-76
2022/05/02 03:17:16;;;;;;;4.03;0.80;;;27.00;92.20;;;;;;5091724;28;20433;-75
2022/05/02 03:19:44;;;;;;;2.33;0.47;;;27.10;91.70;;;;;;5083363;28;20035;-76
2022/05/02 03:22:11;;;;;;;3.15;0.43;;;27.10;91.10;;;;;;5087032;28;20126;-75
2022/05/02 03:24:39;;;;;;;3.92;1.38;;;27.00;91.80;;;;;;5076812;28;20036;-75
2022/05/02 03:27:07;;;;;;;4.45;1.75;;;27.00;91.50;;;;;;5092343;28;20039;-75
2022/05/02 03:29:36;;;;;;;2.25;0.75;;;26.70;91.40;;;;;;5094517;28;20371;-77
2022/05/02 03:32:04;;;;;;;2.28;0.52;;;26.70;92.00;;;;;;5074699;28;20389;-76
2022/05/02 03:34:31;;;;;;;6.78;0.52;;;26.60;91.60;;;;;;5070596;28;20034;-76
2022/05/02 03:36:59;;;;;;;1.20;0.50;;;26.60;92.00;;;;;;5084692;28;20082;-75
2022/05/02 03:39:27;;;;;;;2.88;0.38;;;26.40;91.80;;;;;;5086763;28;20024;-76
2022/05/02 03:41:54;;;;;;;3.08;0.45;;;26.10;92.20;;;;;;5084349;28;20270;-74
2022/05/02 03:44:22;;;;;;;2.88;0.50;;;25.90;92.80;;;;;;5077689;28;20025;-76
2022/05/02 03:46:49;;;;;;;1.95;0.40;;;25.70;92.80;;;;;;5080742;28;20115;-75
2022/05/02 03:49:16;;;;;;;1.30;0.30;;;25.60;92.90;;;;;;5087898;28;20086;-75
2022/05/02 03:51:44;;;;;;;5.93;0.90;;;25.30;92.90;;;;;;5084864;28;20032;-75
2022/05/02 03:54:24;;;;;;;;;;;;;;;;;;;;;
2022/05/02 03:56:52;;;;;;;4.70;0.73;;;24.80;93.50;;;;;;5087966;28;20028;-75
2022/05/02 03:59:19;;;;;;;3.03;0.40;;;24.80;93.70;;;;;;5076765;28;20428;-75
2022/05/02 04:01:47;;;;;;;5.60;0.55;;;25.00;93.60;;;;;;5072436;28;20051;-77
2022/05/02 04:04:14;;;;;;;6.13;0.40;;;24.70;94.00;;;;;;5080983;28;20093;-75
2022/05/02 04:06:41;;;;;;;4.28;1.48;;;24.60;94.00;;;;;;5088484;28;20028;-75
2022/05/02 04:09:09;;;;;;;1.35;0.40;;;24.60;93.40;;;;;;5085629;28;20493;-75
2022/05/02 04:11:39;;;;;;;1.67;0.45;;;24.70;93.70;;;;;;5084287;28;20127;-78
2022/05/02 04:14:06;;;;;;;2.70;0.40;;;24.90;93.60;;;;;;5069294;28;20040;-75
2022/05/02 04:16:34;;;;;;;4.22;0.90;;;24.80;93.80;;;;;;5085101;28;20029;-74
2022/05/02 04:19:01;;;;;;;3.50;0.43;;;24.60;93.60;;;;;;5087253;28;20075;-76
2022/05/02 04:21:28;;;;;;;0.70;0.60;;;24.30;94.30;;;;;;5091488;28;20040;-73
2022/05/02 04:23:56;;;;;;;2.53;0.30;;;24.00;94.40;;;;;;5082342;28;20033;-74
2022/05/02 04:26:23;;;;;;;4.53;0.70;;;24.00;95.00;;;;;;5083278;28;20355;-75
2022/05/02 04:28:50;;;;;;;2.35;0.40;;;24.00;94.90;;;;;;5086173;28;20046;-75
2022/05/02 04:31:18;;;;;;;0.98;0.40;;;24.10;94.50;;;;;;5086817;28;20023;-74
2022/05/02 04:33:45;;;;;;;2.95;1.10;;;24.10;95.00;;;;;;5089367;28;20036;-74
2022/05/02 04:36:13;;;;;;;2.00;0.90;;;24.00;94.80;;;;;;5091231;28;20060;-75
2022/05/02 04:38:40;;;;;;;4.82;0.88;;;23.90;95.00;;;;;;5097624;28;20024;-76
2022/05/02 04:41:10;;;;;;;0.65;0.20;;;23.90;95.10;;;;;;5088014;28;20116;-75
2022/05/02 04:43:38;;;;;;;4.72;0.47;;;23.80;94.90;;;;;;5086481;28;20047;-73
2022/05/02 04:46:06;;;;;;;3.90;0.47;;;23.80;94.70;;;;;;5072487;28;20042;-75
2022/05/02 04:48:33;;;;;;;1.33;0.40;;;23.80;94.70;;;;;;5086971;28;20044;-75
2022/05/02 04:51:00;;;;;;;1.73;0.40;;;23.70;95.20;;;;;;5088806;28;20063;-76
2022/05/02 04:53:28;;;;;;;1.75;0.30;;;23.60;95.30;;;;;;5089740;28;20031;-76
2022/05/02 04:55:55;;;;;;;3.28;0.30;;;23.60;95.60;;;;;;5091216;28;20103;-75
2022/05/02 04:58:22;;;;;;;3.42;0.40;;;23.60;95.30;;;;;;5079739;28;20028;-75
2022/05/02 05:00:50;;;;;;;3.47;0.40;;;23.50;95.90;;;;;;5082553;28;20507;-76
2022/05/02 05:03:17;;;;;;;1.20;0.30;;;23.50;95.20;;;;;;5091521;28;20039;-76
2022/05/02 05:05:45;;;;;;;2.05;0.20;;;23.40;94.90;;;;;;5084608;28;20479;-75
2022/05/02 05:08:13;;;;;;;3.90;0.50;;;23.40;94.50;;;;;;5089856;28;20024;-75
2022/05/02 05:11:18;;;;;;;1.23;0.35;;;23.40;95.20;;;;;;5087665;28;20032;-75
2022/05/02 05:17:25;;;;;;;0.50;0.30;;;23.40;95.10;;;;;;5088505;28;20125;-75
2022/05/02 05:20:03;;;;;;;5.05;0.40;;;23.50;95.60;;;;;;5090749;28;20026;-76
2022/05/02 05:22:45;;;;;;;0.55;0.35;;;23.50;95.90;;;;;;5087001;28;20062;-75
2022/05/02 05:25:42;;;;;;;1.40;0.75;;;23.50;95.40;;;;;;5085813;28;20431;-75
2022/05/02 05:28:29;;;;;;;5.35;1.65;;;23.60;95.60;;;;;;5087520;28;20028;-76
2022/05/02 05:31:23;;;;;;;5.80;1.08;;;23.50;95.80;;;;;;5086285;28;20035;-75
2022/05/02 05:34:16;;;;;;;3.13;1.08;;;23.50;96.20;;;;;;5082737;28;20032;-75
2022/05/02 05:37:12;;;;;;;1.48;0.50;;;23.50;96.60;;;;;;5085411;28;20028;-75
2022/05/02 05:40:06;;;;;;;3.30;0.50;;;23.60;96.30;;;;;;5060894;28;20114;-75
2022/05/02 05:42:57;;;;;;;2.22;0.43;;;23.80;95.80;;;;;;5026203;28;20052;-77
2022/05/02 05:45:51;;;;;;;2.50;0.30;;;23.90;95.10;;;;;;5080581;28;20024;-74
2022/05/02 05:48:26;;;;;;;2.17;0.40;;;23.90;95.10;;;;;;5090079;28;20040;-73
2022/05/02 05:51:19;;;;;;;3.30;0.90;;;24.10;95.30;;;;;;5076964;28;20020;-73
2022/05/02 05:54:04;;;;;;;1.13;0.30;;;24.20;95.10;;;;;;5079070;28;20367;-74
2022/05/02 05:57:02;;;;;;;2.58;0.35;;;24.20;95.30;;;;;;5080010;28;20939;-75
2022/05/02 05:59:41;;;;;;;0.50;0.28;;;24.30;95.50;;;;;;5070567;28;20101;-73
2022/05/02 06:02:47;;;;;;;5.93;0.50;;;24.50;95.40;;;;;;5069146;28;20032;-74
2022/05/02 06:05:16;;;;;;;1.63;0.50;;;24.30;95.30;;;;;;5054826;28;20067;-73
2022/05/02 06:07:45;;;;;;;3.97;0.50;;;24.30;95.50;;;;;;5073392;28;20285;-73
2022/05/02 06:10:16;;;;;;;4.00;0.50;;;24.20;95.80;;;;;;5073062;28;20104;-72
2022/05/02 06:12:45;;;;;;;4.20;0.70;;;24.20;96.00;;;;;;5069438;28;20025;-73
2022/05/02 06:20:55;;;;;;;4.10;0.52;;;24.00;96.50;;;;;;5084766;28;20116;-73
2022/05/02 06:23:25;;;;;;;2.97;0.63;;;23.80;96.90;;;;;;5077448;28;20078;-74
2022/05/02 06:26:05;;;;;;;;;;;;;;;;;;;;;
2022/05/02 06:28:42;;;;;;;3.42;0.60;;;23.60;97.40;;;;;;5077706;28;20020;-74
2022/05/02 06:31:32;;;;;;;0.95;0.30;;;23.50;97.20;;;;;;5073631;28;20032;-72
2022/05/02 06:34:00;;;;;;;2.28;0.50;;;23.50;97.30;;;;;;5072191;28;20027;-73
2022/05/02 06:36:36;;;;;;;1.80;0.75;;;23.40;97.40;;;;;;5072214;28;20047;-73
2022/05/02 06:39:23;;;;;;;4.82;0.52;;;23.40;97.60;;;;;;5072548;28;20043;-73
2022/05/02 06:42:13;;;;;;;3.45;0.80;;;23.20;97.90;;;;;;5074643;28;20499;-73
2022/05/02 06:45:14;;;;;;;4.40;0.50;;;23.20;98.00;;;;;;5073401;28;20103;-74
2022/05/02 06:48:18;;;;;;;3.30;1.00;;;23.10;98.10;;;;;;5073183;28;20406;-74
2022/05/02 06:50:57;;;;;;;7.68;2.78;;;23.00;98.30;;;;;;5070325;28;20131;-73
2022/05/02 06:54:00;;;;;;;9.98;4.93;;;22.70;98.70;;;;;;5071240;28;20441;-73
2022/05/02 06:56:36;;;;;;;7.30;3.00;;;22.60;99.10;;;;;;5072627;28;20039;-73
2022/05/02 06:59:34;;;;;;;3.08;1.73;;;22.30;99.50;;;;;;5075536;28;20036;-73
2022/05/02 07:02:13;;;;;;;5.97;2.72;;;22.10;99.90;;;;;;5060144;28;20044;-72
2022/05/02 07:04:53;;;;;;;6.20;2.22;;;21.90;99.90;;;;;;5078063;28;20554;-72
2022/05/02 07:07:36;;;;;;;6.15;2.92;;;21.80;99.90;;;;;;5070585;28;20115;-75
2022/05/02 07:10:10;;;;;;;8.93;1.92;;;21.70;99.90;;;;;;5069929;28;20036;-73
2022/05/02 07:13:00;;;;;;;7.78;3.42;;;21.60;99.90;;;;;;5080685;28;20119;-72
2022/05/02 07:15:48;;;;;;;4.93;2.90;;;21.50;99.90;;;;;;5072460;28;20050;-72
2022/05/02 07:18:52;;;;;;;6.60;2.10;;;21.40;99.90;;;;;;5073745;28;20031;-73
2022/05/02 07:21:38;;;;;;;1.92;0.95;;;21.30;99.90;;;;;;5074958;28;20043;-74
2022/05/02 07:24:37;;;;;;;4.32;1.63;;;21.30;99.90;;;;;;5070308;28;20139;-75
2022/05/02 07:27:16;;;;;;;3.45;1.10;;;21.20;99.90;;;;;;5073262;28;20039;-73
2022/05/02 07:29:47;;;;;;;4.57;1.38;;;21.10;99.90;;;;;;5070126;28;20493;-73
2022/05/02 07:32:16;;;;;;;4.65;1.60;;;21.00;99.90;;;;;;5071890;28;20118;-73
2022/05/02 07:34:47;;;;;;;2.25;1.02;;;21.10;99.90;;;;;;5074869;28;20054;-73
2022/05/02 07:37:18;;;;;;;3.25;0.80;;;21.10;99.90;;;;;;5073838;28;20584;-73
2022/05/02 07:39:48;;;;;;;2.20;0.70;;;20.90;99.90;;;;;;5071548;28;20115;-72
2022/05/02 07:42:18;;;;;;;4.53;0.77;;;20.80;99.90;;;;;;5070732;28;20036;-74
2022/05/02 07:44:50;;;;;;;3.90;1.55;;;20.70;99.90;;;;;;5072658;28;20036;-73
2022/05/02 07:47:19;;;;;;;3.55;1.45;;;20.70;99.90;;;;;;5073456;28;20045;-74
2022/05/02 07:49:54;;;;;;;3.28;0.70;;;20.60;99.90;;;;;;5071402;28;20021;-74
2022/05/02 07:52:24;;;;;;;4.32;1.45;;;20.60;99.90;;;;;;5072826;28;20154;-73
2022/05/02 07:54:53;;;;;;;3.28;1.13;;;20.50;99.90;;;;;;5086404;28;20409;-75
2022/05/02 07:57:21;;;;;;;2.03;0.70;;;20.40;99.90;;;;;;5083581;28;20528;-75
2022/05/02 07:59:58;;;;;;;4.20;1.42;;;20.30;99.90;;;;;;5090848;28;20058;-76
2022/05/02 08:02:26;;;;;;;4.65;2.13;;;20.20;99.90;;;;;;5093936;28;20114;-79
2022/05/02 08:04:54;;;;;;;3.78;0.80;;;20.20;99.90;;;;;;5073867;28;20027;-78
2022/05/02 08:07:31;;;;;;;4.18;1.77;;;20.10;99.90;;;;;;5082823;28;20028;-77
2022/05/02 08:10:22;;;;;;;3.75;1.50;;;20.10;99.90;;;;;;5093769;28;20155;-77
2022/05/02 08:12:57;;;;;;;6.60;1.40;;;20.00;99.90;;;;;;5068812;28;20032;-74
2022/05/02 08:15:52;;;;;;;4.43;1.20;;;20.00;99.90;;;;;;5075872;28;20019;-74
2022/05/02 08:18:47;;;;;;;4.72;2.03;;;19.90;99.90;;;;;;5068074;28;20040;-77
2022/05/02 08:21:33;;;;;;;3.40;1.55;;;19.80;99.90;;;;;;5089261;28;20024;-76
2022/05/02 08:27:21;;;;;;;6.93;1.52;;;19.70;99.90;;;;;;5091480;28;20046;-73
2022/05/02 08:30:08;;;;;;;6.93;1.50;;;19.70;99.90;;;;;;5074182;28;20025;-75
2022/05/02 08:32:41;;;;;;;7.10;2.10;;;19.70;99.90;;;;;;5084866;28;20020;-75
2022/05/02 08:35:13;;;;;;;6.43;1.70;;;19.60;99.90;;;;;;5073821;28;20429;-76
2022/05/02 08:38:12;;;;;;;6.85;2.45;;;19.60;99.90;;;;;;5087944;28;20032;-75
2022/05/02 08:40:42;;;;;;;3.85;2.45;;;19.50;99.90;;;;;;5080431;28;20033;-75
2022/05/02 08:43:41;;;;;;;3.25;1.88;;;19.40;99.90;;;;;;5109188;28;20024;-75
2022/05/02 08:46:08;;;;;;;9.25;3.25;;;19.30;99.90;;;;;;5090640;28;20028;-74
2022/05/02 08:49:35;;;;;;;3.83;1.30;;;19.30;99.90;;;;;;5092687;28;20052;-73
2022/05/02 08:52:38;;;;;;;5.82;2.30;;;19.20;99.90;;;;;;5084225;28;20387;-74
2022/05/02 08:55:40;;;;;;;3.47;1.60;;;19.20;99.90;;;;;;5088989;28;20028;-73
2022/05/02 08:58:26;;;;;;;5.07;2.00;;;19.20;99.90;;;;;;5089709;28;20363;-75
2022/05/02 09:01:22;;;;;;;4.55;1.63;;;19.10;99.90;;;;;;5086739;28;20032;-74
2022/05/02 09:04:18;;;;;;;6.38;1.65;;;19.10;99.90;;;;;;5038818;28;20450;-76
2022/05/02 09:07:03;;;;;;;3.80;1.90;;;19.10;99.90;;;;;;5092107;28;20069;-75
2022/05/02 09:09:41;;;;;;;5.45;1.75;;;19.00;99.90;;;;;;5092658;28;20479;-75
2022/05/02 09:12:26;;;;;;;5.93;1.75;;;19.00;99.90;;;;;;5098553;28;20550;-77
2022/05/02 09:15:14;;;;;;;3.97;1.67;;;18.90;99.90;;;;;;5112839;28;20111;-74
2022/05/02 09:18:18;;;;;;;2.97;1.50;;;18.80;99.90;;;;;;5090305;28;20024;-73
2022/05/02 09:21:17;;;;;;;5.28;1.83;;;18.80;99.90;;;;;;5090298;28;20042;-74
2022/05/02 09:23:59;;;;;;;5.47;2.22;;;18.70;99.90;;;;;;5074009;28;20420;-75
2022/05/02 09:26:38;;;;;;;3.13;1.73;;;18.60;99.90;;;;;;5077281;28;20051;-76
2022/05/02 09:29:31;;;;;;;4.65;1.60;;;18.60;99.90;;;;;;5089715;28;20024;-75
2022/05/02 09:32:22;;;;;;;5.05;1.77;;;18.50;99.90;;;;;;5073621;28;20024;-75
2022/05/02 09:34:59;;;;;;;3.10;1.17;;;18.50;99.90;;;;;;5093045;28;20051;-76
2022/05/02 09:37:53;;;;;;;6.10;1.45;;;18.40;99.90;;;;;;5090947;28;20035;-75
2022/05/02 09:40:33;;;;;;;5.78;1.77;;;18.30;99.90;;;;;;5072632;28;20032;-75
2022/05/02 09:43:07;;;;;;;3.30;1.45;;;18.30;99.90;;;;;;5090470;28;20028;-75
2022/05/02 09:52:02;;;;;;;2.85;1.80;;;18.10;99.90;;;;;;5084417;28;20027;-74
2022/05/02 09:57:25;;;;;;;4.93;1.98;;;18.00;99.90;;;;;;5083865;28;20120;-75
2022/05/02 10:01:06;;;;;;;6.70;2.00;;;18.00;99.90;;;;;;5074526;28;20024;-74
2022/05/02 10:02:48;;;;;;;5.57;1.88;;;17.90;99.90;;;;;;5089878;28;20036;-75
2022/05/02 10:05:37;;;;;;;2.47;1.60;;;17.90;99.90;;;;;;5092450;28;20103;-75
2022/05/02 10:08:33;;;;;;;4.68;2.42;;;17.90;99.90;;;;;;5099674;28;20027;-73
2022/05/02 10:11:25;;;;;;;1.70;1.27;;;17.80;99.90;;;;;;5061910;28;20044;-75
2022/05/02 10:14:34;;;;;;;5.03;1.90;;;17.80;99.90;;;;;;5112636;28;20505;-74
2022/05/02 10:17:16;;;;;;;6.35;1.40;;;17.70;99.90;;;;;;5091223;28;20030;-76
2022/05/02 10:19:55;;;;;;;3.60;1.52;;;17.70;99.90;;;;;;5090537;28;20070;-75
2022/05/02 10:22:48;;;;;;;3.80;1.55;;;17.60;99.90;;;;;;5087664;28;20036;-74
2022/05/02 10:25:43;;;;;;;6.15;1.80;;;17.60;99.90;;;;;;5089374;28;20555;-77
2022/05/02 10:28:25;;;;;;;6.90;2.05;;;17.50;99.90;;;;;;5088229;28;20615;-76
2022/05/02 10:31:32;;;;;;;3.45;2.25;;;17.50;99.90;;;;;;5087194;28;20103;-75
2022/05/02 10:34:03;;;;;;;9.60;2.25;;;17.50;99.90;;;;;;5054312;28;20264;-74
2022/05/02 10:36:40;;;;;;;4.65;1.80;;;17.50;99.90;;;;;;5095748;28;20049;-74
2022/05/02 10:39:47;;;;;;;3.67;1.98;;;17.50;99.90;;;;;;5093988;28;20032;-75
2022/05/02 10:42:19;;;;;;;4.40;1.60;;;17.50;99.90;;;;;;5087609;28;20482;-73
2022/05/02 10:44:56;;;;;;;3.47;2.28;;;17.40;99.90;;;;;;5090447;28;20032;-75
2022/05/02 10:47:28;;;;;;;5.55;1.77;;;17.40;99.90;;;;;;5094349;28;20090;-74
2022/05/02 10:50:08;;;;;;;7.32;2.05;;;17.30;99.90;;;;;;5073393;28;20024;-75
2022/05/02 10:52:49;;;;;;;7.50;2.13;;;17.30;99.90;;;;;;5085377;28;20512;-74
2022/05/02 10:55:48;;;;;;;5.85;2.20;;;17.20;99.90;;;;;;5082895;28;20136;-76
2022/05/02 10:58:17;;;;;;;14.40;3.47;;;17.20;99.90;;;;;;5076014;28;21953;-74
2022/05/02 11:00:58;;;;;;;7.07;3.38;;;17.10;99.90;;;;;;5087561;28;20077;-75
2022/05/02 11:03:50;;;;;;;5.53;2.67;;;17.00;99.90;;;;;;5087796;28;20024;-74
2022/05/02 11:06:35;;;;;;;6.38;2.90;;;17.00;99.90;;;;;;5087115;28;20470;-75
2022/05/02 11:09:10;;;;;;;8.65;2.20;;;16.90;99.90;;;;;;5086122;28;20119;-75
2022/05/02 11:11:52;;;;;;;4.20;2.35;;;16.90;99.90;;;;;;5086736;28;20032;-75
2022/05/02 11:14:49;;;;;;;6.82;3.03;;;16.80;99.90;;;;;;5088070;28;20377;-74
2022/05/02 11:17:42;;;;;;;4.00;1.95;;;16.70;99.90;;;;;;5089844;28;20112;-75
2022/05/02 11:20:45;;;;;;;5.30;3.38;;;16.70;99.90;;;;;;5074979;28;20026;-76
2022/05/02 11:23:49;;;;;;;4.93;1.80;;;16.70;99.90;;;;;;5080215;28;20032;-78
2022/05/02 11:26:43;;;;;;;5.40;2.47;;;16.60;99.90;;;;;;5076696;28;20069;-75
2022/05/02 11:29:28;;;;;;;5.95;2.33;;;16.60;99.90;;;;;;5083729;28;20070;-75
2022/05/02 11:32:02;;;;;;;7.22;2.92;;;16.60;99.90;;;;;;5089282;28;20032;-75
2022/05/02 11:34:30;;;;;;;7.90;3.30;;;16.50;99.90;;;;;;5097712;28;20051;-74
2022/05/02 11:36:58;;;;;;;6.10;2.72;;;16.40;99.90;;;;;;5097486;28;20157;-75
2022/05/02 11:39:57;;;;;;;6.57;2.60;;;16.40;99.90;;;;;;5095065;28;20024;-75
2022/05/02 11:42:28;;;;;;;5.30;2.00;;;16.40;99.90;;;;;;5100255;28;20039;-74
2022/05/02 11:45:10;;;;;;;8.02;2.33;;;16.30;99.90;;;;;;5115620;28;20470;-75
2022/05/02 11:47:37;;;;;;;5.13;2.38;;;16.30;99.90;;;;;;5085314;28;20159;-75
2022/05/02 11:50:06;;;;;;;6.97;2.65;;;16.20;99.90;;;;;;5076480;28;20031;-75
2022/05/02 11:52:36;;;;;;;10.82;3.00;;;16.20;99.90;;;;;;5092913;28;20035;-74
2022/05/02 11:55:10;;;;;;;6.57;2.53;;;16.10;99.90;;;;;;5092605;28;20497;-74
2022/05/02 11:57:52;;;;;;;10.48;3.15;;;16.10;99.90;;;;;;5099800;28;20024;-76
2022/05/02 12:00:20;;;;;;;4.50;2.42;;;16.00;99.90;;;;;;5094387;28;20389;-76
2022/05/02 12:03:03;;;;;;;3.67;2.40;;;16.00;99.90;;;;;;5093757;28;20169;-75
2022/05/02 12:05:36;;;;;;;6.43;2.92;;;16.00;99.90;;;;;;5085223;28;20478;-74
2022/05/02 12:08:06;;;;;;;7.07;3.03;;;15.90;99.90;;;;;;5089064;28;20156;-74
2022/05/02 12:10:39;;;;;;;4.35;2.40;;;15.90;99.90;;;;;;5090423;28;20497;-75
2022/05/02 12:13:12;;;;;;;4.40;2.72;;;15.90;99.90;;;;;;5091903;28;20763;-75
2022/05/02 12:16:20;;;;;;;4.90;2.40;;;15.90;99.90;;;;;;5091492;28;20398;-74
2022/05/02 12:18:56;;;;;;;6.03;2.85;;;15.90;99.90;;;;;;5085525;28;20403;-75
2022/05/02 12:21:36;;;;;;;;;;;15.80;99.90;;;;;;5082597;28;20039;-74
2022/05/02 12:24:05;;;;;;;6.38;2.50;;;15.80;99.90;;;;;;5094302;28;19913;-75
2022/05/02 12:26:34;;;;;;;6.10;2.40;;;15.80;99.90;;;;;;5091603;28;20038;-74
2022/05/02 12:29:12;;;;;;;6.47;2.67;;;15.70;99.90;;;;;;5090446;28;20143;-75
2022/05/02 12:31:43;;;;;;;7.72;2.85;;;15.70;99.90;;;;;;5092439;28;20032;-74
2022/05/02 12:34:12;;;;;;;5.82;2.70;;;15.70;99.90;;;;;;5076423;28;20074;-76
2022/05/02 12:36:48;;;;;;;6.75;2.65;;;15.70;99.90;;;;;;5080492;28;20024;-74
2022/05/02 12:39:27;;;;;;;7.28;2.78;;;15.70;99.90;;;;;;5094085;28;20089;-73
2022/05/02 12:42:17;;;;;;;6.85;3.05;;;15.70;99.90;;;;;;5090746;28;20435;-76
2022/05/02 12:45:03;;;;;;;7.63;2.47;;;15.70;99.90;;;;;;5092629;28;20031;-75
2022/05/02 12:47:53;;;;;;;6.85;2.83;;;15.70;99.90;;;;;;5091551;28;20132;-74
2022/05/02 12:50:27;;;;;;;6.13;2.72;;;15.70;99.90;;;;;;5092992;28;20504;-75
2022/05/02 12:53:05;;;;;;;4.78;2.40;;;15.60;99.90;;;;;;5089335;28;20420;-75
2022/05/02 12:55:38;;;;;;;5.22;2.55;;;15.60;99.90;;;;;;5089267;28;20119;-75
2022/05/02 13:00:59;;;;;;;7.80;2.58;;;15.60;99.90;;;;;;5095442;28;20059;-74
2022/05/02 13:03:30;;;;;;;7.10;2.42;;;15.70;99.90;;;;;;5081499;28;20032;-74
2022/05/02 13:06:06;;;;;;;8.05;4.20;;;15.80;99.90;;;;;;5074000;28;20041;-75
2022/05/02 13:08:41;;;;;;;8.55;2.17;;;15.80;99.90;;;;;;5100358;28;20031;-74
2022/05/02 13:11:22;;;;;;;7.90;2.78;;;15.90;99.90;;;;;;5092481;28;20033;-76
2022/05/02 13:13:52;;;;;;;9.10;2.78;;;16.00;99.90;;;;;;5081116;28;20107;-75
2022/05/02 13:16:30;;;;;;;4.25;2.67;;;16.10;99.90;;;;;;5088135;28;20027;-74
2022/05/02 13:19:08;;;;;;;5.03;2.83;;;16.10;99.90;;;;;;5091698;28;20447;-75
2022/05/02 13:21:37;;;;;;;4.82;3.00;;;16.20;99.90;;;;;;5100682;28;20046;-76
2022/05/02 13:24:17;;;;;;;5.25;2.67;;;16.30;99.90;;;;;;5090559;28;20331;-73
2022/05/02 13:27:02;;;;;;;4.97;2.47;;;16.30;99.90;;;;;;5089468;28;20490;-75
2022/05/02 13:30:10;;;;;;;6.20;3.67;;;16.40;99.90;;;;;;5090451;28;20031;-75
2022/05/02 13:33:11;;;;;;;6.78;3.08;;;16.40;99.90;;;;;;5080180;28;20035;-74
2022/05/02 13:35:41;;;;;;;3.60;2.30;;;16.40;99.90;;;;;;5090093;28;20123;-74
2022/05/02 13:38:19;;;;;;;4.05;2.60;;;16.40;99.90;;;;;;5089431;28;20060;-74
2022/05/02 13:41:20;;;;;;;3.70;2.28;;;16.40;99.90;;;;;;5082268;28;20041;-74
2022/05/02 13:44:14;;;;;;;4.22;2.60;;;16.40;99.90;;;;;;5081174;28;20104;-75
2022/05/02 13:46:59;;;;;;;4.28;2.92;;;16.40;99.90;;;;;;5083471;28;20039;-75
2022/05/02 13:49:44;;;;;;;7.88;3.40;;;16.40;99.90;;;;;;5084698;28;20046;-75
2022/05/02 13:52:27;;;;;;;5.30;2.53;;;16.40;99.90;;;;;;5096952;28;20133;-75
2022/05/02 13:54:55;;;;;;;3.20;2.50;;;16.40;99.90;;;;;;5101871;28;20035;-74
2022/05/02 13:57:34;;;;;;;3.65;2.22;;;16.40;99.90;;;;;;5081036;28;20497;-73
2022/05/02 14:03:11;;;;;;;4.38;2.55;;;16.40;99.90;;;;;;5083801;28;20032;-74
2022/05/02 14:05:59;;;;;;;5.13;3.30;;;16.40;99.90;;;;;;5078673;28;20466;-75
2022/05/02 14:08:42;;;;;;;5.28;2.20;;;16.40;99.90;;;;;;5081389;28;20405;-74
2022/05/02 14:11:16;;;;;;;6.82;2.60;;;16.40;99.90;;;;;;5093260;28;20036;-75
2022/05/02 14:13:46;;;;;;;4.75;2.28;;;16.30;99.90;;;;;;5088821;28;20620;-75
2022/05/02 14:16:17;;;;;;;5.30;2.03;;;16.40;99.90;;;;;;5090660;28;20027;-74
2022/05/02 14:18:59;;;;;;;4.05;2.47;;;16.30;99.90;;;;;;5089176;28;20027;-74